sensor_id;sensor_type;location;lat;lon;timestamp;P1;durP1;ratioP1;P2;durP2;ratioP2
10341;SDS011;5216;54.602;18.356;2023-04-03T00:08:11;2.43;;;0.90;;
10341;SDS011;5216;54.602;18.356;2023-04-03T00:10:38;2.67;;;1.27;;
10341;SDS011;5216;54.602;18.356;2023-04-03T00:13:06;2.50;;;1.10;;
10341;SDS011;5216;54.602;18.356;2023-04-03T00:15:32;2.07;;;1.03;;
10341;SDS011;5216;54.602;18.356;2023-04-03T00:17:59;3.17;;;1.17;;
10341;SDS011;5216;54.602;18.356;2023-04-03T00:20:26;2.57;;;0.93;;
10341;SDS011;5216;54.602;18.356;2023-04-03T00:22:53;3.13;;;1.10;;
10341;SDS011;5216;54.602;18.356;2023-04-03T00:25:20;2.33;;;1.00;;
10341;SDS011;5216;54.602;18.356;2023-04-03T00:27:47;1.57;;;0.90;;
10341;SDS011;5216;54.602;18.356;2023-04-03T00:30:14;3.27;;;0.90;;
10341;SDS011;5216;54.602;18.356;2023-04-03T00:32:41;1.73;;;1.17;;
10341;SDS011;5216;54.602;18.356;2023-04-03T00:35:08;2.13;;;1.00;;
10341;SDS011;5216;54.602;18.356;2023-04-03T00:37:34;1.97;;;1.03;;
10341;SDS011;5216;54.602;18.356;2023-04-03T00:40:02;1.90;;;0.90;;
10341;SDS011;5216;54.602;18.356;2023-04-03T00:42:29;1.87;;;1.00;;
10341;SDS011;5216;54.602;18.356;2023-04-03T00:47:22;1.70;;;0.80;;
10341;SDS011;5216;54.602;18.356;2023-04-03T00:49:49;1.87;;;1.00;;
10341;SDS011;5216;54.602;18.356;2023-04-03T00:52:17;1.70;;;0.90;;
10341;SDS011;5216;54.602;18.356;2023-04-03T00:54:45;3.37;;;1.10;;
10341;SDS011;5216;54.602;18.356;2023-04-03T00:57:13;1.60;;;0.90;;
10341;SDS011;5216;54.602;18.356;2023-04-03T00:59:45;2.07;;;0.80;;
10341;SDS011;5216;54.602;18.356;2023-04-03T01:02:13;1.63;;;0.80;;
10341;SDS011;5216;54.602;18.356;2023-04-03T01:04:41;3.30;;;0.87;;
10341;SDS011;5216;54.602;18.356;2023-04-03T01:09:35;1.90;;;0.97;;
10341;SDS011;5216;54.602;18.356;2023-04-03T01:14:51;1.27;;;0.90;;
10341;SDS011;5216;54.602;18.356;2023-04-03T01:17:38;3.10;;;1.00;;
10341;SDS011;5216;54.602;18.356;2023-04-03T01:23:03;1.53;;;0.80;;
10341;SDS011;5216;54.602;18.356;2023-04-03T01:25:39;1.67;;;1.07;;
10341;SDS011;5216;54.602;18.356;2023-04-03T01:28:07;3.23;;;1.00;;
10341;SDS011;5216;54.602;18.356;2023-04-03T01:30:34;1.20;;;0.90;;
10341;SDS011;5216;54.602;18.356;2023-04-03T01:33:06;4.57;;;0.80;;
10341;SDS011;5216;54.602;18.356;2023-04-03T01:35:32;1.93;;;0.90;;
10341;SDS011;5216;54.602;18.356;2023-04-03T01:37:59;1.73;;;0.90;;
10341;SDS011;5216;54.602;18.356;2023-04-03T01:40:26;1.83;;;0.90;;
10341;SDS011;5216;54.602;18.356;2023-04-03T01:42:52;3.00;;;1.07;;
10341;SDS011;5216;54.602;18.356;2023-04-03T01:45:18;1.30;;;0.90;;
10341;SDS011;5216;54.602;18.356;2023-04-03T01:47:45;1.87;;;0.97;;
10341;SDS011;5216;54.602;18.356;2023-04-03T01:50:12;2.40;;;1.10;;
10341;SDS011;5216;54.602;18.356;2023-04-03T01:52:38;1.93;;;0.70;;
10341;SDS011;5216;54.602;18.356;2023-04-03T01:55:05;3.40;;;0.87;;
10341;SDS011;5216;54.602;18.356;2023-04-03T01:57:31;2.03;;;1.00;;
10341;SDS011;5216;54.602;18.356;2023-04-03T01:59:58;2.20;;;1.03;;
10341;SDS011;5216;54.602;18.356;2023-04-03T02:02:25;1.80;;;0.87;;
10341;SDS011;5216;54.602;18.356;2023-04-03T02:04:51;0.93;;;0.70;;
10341;SDS011;5216;54.602;18.356;2023-04-03T02:07:18;2.37;;;0.90;;
10341;SDS011;5216;54.602;18.356;2023-04-03T02:09:45;2.97;;;0.90;;
10341;SDS011;5216;54.602;18.356;2023-04-03T02:12:11;2.07;;;0.90;;
10341;SDS011;5216;54.602;18.356;2023-04-03T02:14:38;2.30;;;1.00;;
10341;SDS011;5216;54.602;18.356;2023-04-03T02:17:04;2.10;;;1.20;;
10341;SDS011;5216;54.602;18.356;2023-04-03T02:19:35;1.77;;;1.20;;
10341;SDS011;5216;54.602;18.356;2023-04-03T02:22:02;4.00;;;1.17;;
10341;SDS011;5216;54.602;18.356;2023-04-03T02:24:29;2.03;;;0.97;;
10341;SDS011;5216;54.602;18.356;2023-04-03T02:26:55;2.03;;;1.00;;
10341;SDS011;5216;54.602;18.356;2023-04-03T02:29:22;2.53;;;0.90;;
10341;SDS011;5216;54.602;18.356;2023-04-03T02:31:49;2.63;;;1.10;;
10341;SDS011;5216;54.602;18.356;2023-04-03T02:34:22;3.67;;;1.00;;
10341;SDS011;5216;54.602;18.356;2023-04-03T02:36:48;1.70;;;1.00;;
10341;SDS011;5216;54.602;18.356;2023-04-03T02:39:15;3.53;;;1.30;;
10341;SDS011;5216;54.602;18.356;2023-04-03T02:41:42;3.67;;;1.00;;
10341;SDS011;5216;54.602;18.356;2023-04-03T02:44:09;2.63;;;1.00;;
10341;SDS011;5216;54.602;18.356;2023-04-03T02:46:36;1.50;;;0.90;;
10341;SDS011;5216;54.602;18.356;2023-04-03T02:49:03;2.53;;;1.10;;
10341;SDS011;5216;54.602;18.356;2023-04-03T02:51:30;2.03;;;0.90;;
10341;SDS011;5216;54.602;18.356;2023-04-03T02:53:56;1.60;;;0.70;;
10341;SDS011;5216;54.602;18.356;2023-04-03T02:56:23;2.10;;;0.87;;
10341;SDS011;5216;54.602;18.356;2023-04-03T02:58:49;2.10;;;1.07;;
10341;SDS011;5216;54.602;18.356;2023-04-03T03:01:16;0.93;;;0.70;;
10341;SDS011;5216;54.602;18.356;2023-04-03T03:03:52;1.37;;;0.80;;
10341;SDS011;5216;54.602;18.356;2023-04-03T03:06:18;3.47;;;1.60;;
10341;SDS011;5216;54.602;18.356;2023-04-03T03:08:45;1.37;;;1.00;;
10341;SDS011;5216;54.602;18.356;2023-04-03T03:11:11;2.97;;;0.70;;
10341;SDS011;5216;54.602;18.356;2023-04-03T03:13:38;2.47;;;1.03;;
10341;SDS011;5216;54.602;18.356;2023-04-03T03:16:05;1.73;;;0.87;;
10341;SDS011;5216;54.602;18.356;2023-04-03T03:18:32;1.93;;;1.00;;
10341;SDS011;5216;54.602;18.356;2023-04-03T03:20:59;1.30;;;0.80;;
10341;SDS011;5216;54.602;18.356;2023-04-03T03:23:27;2.03;;;0.97;;
10341;SDS011;5216;54.602;18.356;2023-04-03T03:25:54;1.67;;;0.93;;
10341;SDS011;5216;54.602;18.356;2023-04-03T03:28:21;2.27;;;1.00;;
10341;SDS011;5216;54.602;18.356;2023-04-03T03:30:48;1.73;;;0.87;;
10341;SDS011;5216;54.602;18.356;2023-04-03T03:33:14;1.93;;;0.87;;
10341;SDS011;5216;54.602;18.356;2023-04-03T03:35:42;2.57;;;1.00;;
10341;SDS011;5216;54.602;18.356;2023-04-03T03:38:09;2.23;;;0.90;;
10341;SDS011;5216;54.602;18.356;2023-04-03T03:47:51;1.77;;;1.10;;
10341;SDS011;5216;54.602;18.356;2023-04-03T03:50:18;2.20;;;1.00;;
10341;SDS011;5216;54.602;18.356;2023-04-03T03:52:51;2.83;;;1.20;;
10341;SDS011;5216;54.602;18.356;2023-04-03T03:55:17;1.87;;;1.13;;
10341;SDS011;5216;54.602;18.356;2023-04-03T03:57:44;1.63;;;0.90;;
10341;SDS011;5216;54.602;18.356;2023-04-03T04:00:10;1.73;;;1.00;;
10341;SDS011;5216;54.602;18.356;2023-04-03T04:02:37;1.20;;;0.70;;
10341;SDS011;5216;54.602;18.356;2023-04-03T04:05:04;2.63;;;1.30;;
10341;SDS011;5216;54.602;18.356;2023-04-03T04:07:31;2.70;;;1.10;;
10341;SDS011;5216;54.602;18.356;2023-04-03T04:09:57;2.37;;;1.03;;
10341;SDS011;5216;54.602;18.356;2023-04-03T04:12:24;1.87;;;1.10;;
10341;SDS011;5216;54.602;18.356;2023-04-03T04:14:50;1.53;;;0.70;;
10341;SDS011;5216;54.602;18.356;2023-04-03T04:17:17;2.00;;;0.83;;
10341;SDS011;5216;54.602;18.356;2023-04-03T04:19:44;2.63;;;1.10;;
10341;SDS011;5216;54.602;18.356;2023-04-03T04:22:10;4.00;;;1.20;;
10341;SDS011;5216;54.602;18.356;2023-04-03T04:24:37;1.77;;;0.97;;
10341;SDS011;5216;54.602;18.356;2023-04-03T04:27:05;2.40;;;1.17;;
10341;SDS011;5216;54.602;18.356;2023-04-03T04:29:31;3.13;;;1.03;;
10341;SDS011;5216;54.602;18.356;2023-04-03T04:32:02;4.17;;;1.23;;
10341;SDS011;5216;54.602;18.356;2023-04-03T04:34:29;3.50;;;1.20;;
10341;SDS011;5216;54.602;18.356;2023-04-03T04:36:56;4.20;;;1.70;;
10341;SDS011;5216;54.602;18.356;2023-04-03T04:39:22;2.77;;;1.07;;
10341;SDS011;5216;54.602;18.356;2023-04-03T04:41:49;2.77;;;1.20;;
10341;SDS011;5216;54.602;18.356;2023-04-03T04:44:15;1.37;;;1.10;;
10341;SDS011;5216;54.602;18.356;2023-04-03T04:46:42;1.67;;;0.87;;
10341;SDS011;5216;54.602;18.356;2023-04-03T04:49:08;3.67;;;1.20;;
10341;SDS011;5216;54.602;18.356;2023-04-03T04:51:35;2.33;;;1.00;;
10341;SDS011;5216;54.602;18.356;2023-04-03T05:05:56;1.73;;;1.07;;
10341;SDS011;5216;54.602;18.356;2023-04-03T05:08:22;1.90;;;1.00;;
10341;SDS011;5216;54.602;18.356;2023-04-03T05:10:49;1.63;;;1.03;;
10341;SDS011;5216;54.602;18.356;2023-04-03T05:13:16;4.47;;;2.73;;
10341;SDS011;5216;54.602;18.356;2023-04-03T05:15:42;4.00;;;2.00;;
10341;SDS011;5216;54.602;18.356;2023-04-03T05:21:49;1.60;;;0.87;;
10341;SDS011;5216;54.602;18.356;2023-04-03T05:24:22;1.83;;;1.10;;
10341;SDS011;5216;54.602;18.356;2023-04-03T05:26:48;2.67;;;1.00;;
10341;SDS011;5216;54.602;18.356;2023-04-03T05:29:15;1.87;;;1.03;;
10341;SDS011;5216;54.602;18.356;2023-04-03T05:31:42;2.47;;;1.23;;
10341;SDS011;5216;54.602;18.356;2023-04-03T05:34:08;3.90;;;1.13;;
10341;SDS011;5216;54.602;18.356;2023-04-03T05:36:35;1.27;;;1.10;;
10341;SDS011;5216;54.602;18.356;2023-04-03T05:39:02;3.90;;;1.37;;
10341;SDS011;5216;54.602;18.356;2023-04-03T05:41:29;3.80;;;1.27;;
10341;SDS011;5216;54.602;18.356;2023-04-03T05:43:55;2.17;;;1.20;;
10341;SDS011;5216;54.602;18.356;2023-04-03T05:46:22;3.50;;;1.00;;
10341;SDS011;5216;54.602;18.356;2023-04-03T05:48:48;3.40;;;1.30;;
10341;SDS011;5216;54.602;18.356;2023-04-03T05:51:16;3.33;;;1.60;;
10341;SDS011;5216;54.602;18.356;2023-04-03T05:53:43;9.63;;;5.03;;
10341;SDS011;5216;54.602;18.356;2023-04-03T05:56:11;5.63;;;3.43;;
10341;SDS011;5216;54.602;18.356;2023-04-03T05:58:37;2.40;;;1.10;;
10341;SDS011;5216;54.602;18.356;2023-04-03T06:01:04;3.33;;;1.23;;
10341;SDS011;5216;54.602;18.356;2023-04-03T06:03:31;1.33;;;0.80;;
10341;SDS011;5216;54.602;18.356;2023-04-03T06:05:58;2.47;;;1.07;;
10341;SDS011;5216;54.602;18.356;2023-04-03T06:08:25;3.60;;;1.07;;
10341;SDS011;5216;54.602;18.356;2023-04-03T06:10:51;2.00;;;1.00;;
10341;SDS011;5216;54.602;18.356;2023-04-03T06:13:18;3.57;;;1.17;;
10341;SDS011;5216;54.602;18.356;2023-04-03T06:15:45;1.73;;;0.73;;
10341;SDS011;5216;54.602;18.356;2023-04-03T06:18:12;3.63;;;1.00;;
10341;SDS011;5216;54.602;18.356;2023-04-03T06:20:39;1.77;;;0.80;;
10341;SDS011;5216;54.602;18.356;2023-04-03T06:23:06;1.10;;;0.70;;
10341;SDS011;5216;54.602;18.356;2023-04-03T06:25:33;2.00;;;1.00;;
10341;SDS011;5216;54.602;18.356;2023-04-03T06:28:00;2.57;;;0.90;;
10341;SDS011;5216;54.602;18.356;2023-04-03T06:30:27;4.10;;;1.23;;
10341;SDS011;5216;54.602;18.356;2023-04-03T06:32:53;1.87;;;1.00;;
10341;SDS011;5216;54.602;18.356;2023-04-03T06:35:20;2.33;;;1.17;;
10341;SDS011;5216;54.602;18.356;2023-04-03T06:37:47;2.67;;;1.00;;
10341;SDS011;5216;54.602;18.356;2023-04-03T06:40:18;8.07;;;0.90;;
10341;SDS011;5216;54.602;18.356;2023-04-03T06:42:46;3.23;;;0.73;;
10341;SDS011;5216;54.602;18.356;2023-04-03T06:45:12;1.17;;;0.70;;
10341;SDS011;5216;54.602;18.356;2023-04-03T06:47:39;4.53;;;2.47;;
10341;SDS011;5216;54.602;18.356;2023-04-03T06:50:06;6.67;;;4.33;;
10341;SDS011;5216;54.602;18.356;2023-04-03T06:52:33;5.87;;;2.97;;
10341;SDS011;5216;54.602;18.356;2023-04-03T06:55:00;2.20;;;1.20;;
10341;SDS011;5216;54.602;18.356;2023-04-03T06:57:26;4.77;;;1.10;;
10341;SDS011;5216;54.602;18.356;2023-04-03T06:59:53;1.30;;;0.80;;
10341;SDS011;5216;54.602;18.356;2023-04-03T07:02:19;1.87;;;0.77;;
10341;SDS011;5216;54.602;18.356;2023-04-03T07:04:47;2.27;;;0.90;;
10341;SDS011;5216;54.602;18.356;2023-04-03T07:07:14;2.80;;;0.90;;
10341;SDS011;5216;54.602;18.356;2023-04-03T07:09:41;4.27;;;1.00;;
10341;SDS011;5216;54.602;18.356;2023-04-03T07:12:10;1.93;;;0.97;;
10341;SDS011;5216;54.602;18.356;2023-04-03T07:14:37;1.83;;;0.87;;
10341;SDS011;5216;54.602;18.356;2023-04-03T07:17:03;4.97;;;1.40;;
10341;SDS011;5216;54.602;18.356;2023-04-03T07:19:30;1.43;;;0.70;;
10341;SDS011;5216;54.602;18.356;2023-04-03T07:21:57;1.00;;;0.90;;
10341;SDS011;5216;54.602;18.356;2023-04-03T07:24:24;2.37;;;1.13;;
10341;SDS011;5216;54.602;18.356;2023-04-03T07:26:51;2.90;;;1.23;;
10341;SDS011;5216;54.602;18.356;2023-04-03T07:29:18;1.63;;;1.10;;
10341;SDS011;5216;54.602;18.356;2023-04-03T07:31:47;2.00;;;1.00;;
10341;SDS011;5216;54.602;18.356;2023-04-03T07:34:14;0.87;;;0.50;;
10341;SDS011;5216;54.602;18.356;2023-04-03T07:36:41;1.83;;;0.97;;
10341;SDS011;5216;54.602;18.356;2023-04-03T07:39:07;1.40;;;0.73;;
10341;SDS011;5216;54.602;18.356;2023-04-03T07:41:34;1.53;;;0.90;;
10341;SDS011;5216;54.602;18.356;2023-04-03T07:44:01;2.73;;;0.83;;
10341;SDS011;5216;54.602;18.356;2023-04-03T07:46:27;1.53;;;0.87;;
10341;SDS011;5216;54.602;18.356;2023-04-03T07:49:06;1.17;;;0.60;;
10341;SDS011;5216;54.602;18.356;2023-04-03T07:51:33;1.47;;;0.53;;
10341;SDS011;5216;54.602;18.356;2023-04-03T07:53:59;1.37;;;0.90;;
10341;SDS011;5216;54.602;18.356;2023-04-03T07:56:26;2.07;;;0.77;;
10341;SDS011;5216;54.602;18.356;2023-04-03T07:58:52;1.67;;;1.00;;
10341;SDS011;5216;54.602;18.356;2023-04-03T08:01:19;2.83;;;0.90;;
10341;SDS011;5216;54.602;18.356;2023-04-03T08:03:47;2.00;;;0.80;;
10341;SDS011;5216;54.602;18.356;2023-04-03T08:06:13;3.03;;;1.00;;
10341;SDS011;5216;54.602;18.356;2023-04-03T08:08:43;3.37;;;0.90;;
10341;SDS011;5216;54.602;18.356;2023-04-03T08:11:11;2.97;;;1.17;;
10341;SDS011;5216;54.602;18.356;2023-04-03T08:13:38;1.20;;;0.80;;
10341;SDS011;5216;54.602;18.356;2023-04-03T08:16:23;3.10;;;0.90;;
10341;SDS011;5216;54.602;18.356;2023-04-03T08:18:55;1.37;;;0.73;;
10341;SDS011;5216;54.602;18.356;2023-04-03T08:21:22;2.60;;;0.87;;
10341;SDS011;5216;54.602;18.356;2023-04-03T08:23:49;2.50;;;0.90;;
10341;SDS011;5216;54.602;18.356;2023-04-03T08:26:19;2.50;;;1.17;;
10341;SDS011;5216;54.602;18.356;2023-04-03T08:28:47;4.27;;;2.00;;
10341;SDS011;5216;54.602;18.356;2023-04-03T08:31:16;2.60;;;1.80;;
10341;SDS011;5216;54.602;18.356;2023-04-03T08:33:43;3.53;;;1.40;;
10341;SDS011;5216;54.602;18.356;2023-04-03T08:36:17;2.23;;;1.20;;
10341;SDS011;5216;54.602;18.356;2023-04-03T08:38:44;1.30;;;0.83;;
10341;SDS011;5216;54.602;18.356;2023-04-03T08:41:32;3.37;;;1.70;;
10341;SDS011;5216;54.602;18.356;2023-04-03T08:46:30;1.77;;;0.70;;
10341;SDS011;5216;54.602;18.356;2023-04-03T08:48:59;1.80;;;0.80;;
10341;SDS011;5216;54.602;18.356;2023-04-03T08:51:26;2.33;;;1.00;;
10341;SDS011;5216;54.602;18.356;2023-04-03T08:54:01;3.97;;;1.07;;
10341;SDS011;5216;54.602;18.356;2023-04-03T08:56:30;2.43;;;1.10;;
10341;SDS011;5216;54.602;18.356;2023-04-03T08:58:58;2.20;;;0.97;;
10341;SDS011;5216;54.602;18.356;2023-04-03T09:01:27;2.70;;;0.90;;
10341;SDS011;5216;54.602;18.356;2023-04-03T09:03:56;2.33;;;0.83;;
10341;SDS011;5216;54.602;18.356;2023-04-03T09:06:26;2.60;;;1.00;;
10341;SDS011;5216;54.602;18.356;2023-04-03T09:19:54;1.60;;;1.00;;
10341;SDS011;5216;54.602;18.356;2023-04-03T09:22:25;4.73;;;1.33;;
10341;SDS011;5216;54.602;18.356;2023-04-03T09:24:57;3.93;;;1.00;;
10341;SDS011;5216;54.602;18.356;2023-04-03T09:27:28;3.33;;;1.70;;
10341;SDS011;5216;54.602;18.356;2023-04-03T09:29:55;3.20;;;1.70;;
10341;SDS011;5216;54.602;18.356;2023-04-03T09:32:32;3.60;;;2.33;;
10341;SDS011;5216;54.602;18.356;2023-04-03T09:35:02;3.95;;;1.30;;
10341;SDS011;5216;54.602;18.356;2023-04-03T09:37:48;2.30;;;1.10;;
10341;SDS011;5216;54.602;18.356;2023-04-03T09:43:20;1.33;;;0.90;;
10341;SDS011;5216;54.602;18.356;2023-04-03T09:45:48;4.13;;;1.10;;
10341;SDS011;5216;54.602;18.356;2023-04-03T09:56:03;2.17;;;1.00;;
10341;SDS011;5216;54.602;18.356;2023-04-03T09:58:39;1.83;;;0.90;;
10341;SDS011;5216;54.602;18.356;2023-04-03T10:04:10;2.30;;;1.27;;
10341;SDS011;5216;54.602;18.356;2023-04-03T10:09:30;3.20;;;1.10;;
10341;SDS011;5216;54.602;18.356;2023-04-03T10:12:01;3.80;;;1.30;;
10341;SDS011;5216;54.602;18.356;2023-04-03T10:14:31;2.53;;;1.30;;
10341;SDS011;5216;54.602;18.356;2023-04-03T10:24:44;3.23;;;0.97;;
10341;SDS011;5216;54.602;18.356;2023-04-03T10:27:15;1.70;;;0.90;;
10341;SDS011;5216;54.602;18.356;2023-04-03T10:35:07;1.63;;;0.97;;
10341;SDS011;5216;54.602;18.356;2023-04-03T10:37:40;2.20;;;1.20;;
10341;SDS011;5216;54.602;18.356;2023-04-03T10:42:46;2.47;;;1.23;;
10341;SDS011;5216;54.602;18.356;2023-04-03T10:45:21;2.93;;;1.20;;
10341;SDS011;5216;54.602;18.356;2023-04-03T10:55:36;2.43;;;0.80;;
10341;SDS011;5216;54.602;18.356;2023-04-03T10:58:05;1.83;;;1.00;;
10341;SDS011;5216;54.602;18.356;2023-04-03T11:00:39;2.60;;;1.20;;
10341;SDS011;5216;54.602;18.356;2023-04-03T11:03:15;2.50;;;1.40;;
10341;SDS011;5216;54.602;18.356;2023-04-03T11:05:49;3.67;;;1.23;;
10341;SDS011;5216;54.602;18.356;2023-04-03T11:10:50;2.00;;;1.00;;
10341;SDS011;5216;54.602;18.356;2023-04-03T11:16:08;3.27;;;2.80;;
10341;SDS011;5216;54.602;18.356;2023-04-03T11:21:12;2.30;;;1.83;;
10341;SDS011;5216;54.602;18.356;2023-04-03T11:23:40;2.47;;;1.20;;
10341;SDS011;5216;54.602;18.356;2023-04-03T11:26:16;3.67;;;1.20;;
10341;SDS011;5216;54.602;18.356;2023-04-03T11:28:43;1.93;;;1.10;;
10341;SDS011;5216;54.602;18.356;2023-04-03T11:36:27;2.07;;;1.10;;
10341;SDS011;5216;54.602;18.356;2023-04-03T11:38:56;3.30;;;1.30;;
10341;SDS011;5216;54.602;18.356;2023-04-03T11:41:25;2.20;;;1.00;;
10341;SDS011;5216;54.602;18.356;2023-04-03T11:46:56;3.53;;;1.00;;
10341;SDS011;5216;54.602;18.356;2023-04-03T12:24:30;2.80;;;1.20;;
10341;SDS011;5216;54.602;18.356;2023-04-03T12:29:26;4.10;;;1.17;;
10341;SDS011;5216;54.602;18.356;2023-04-03T12:40:08;3.07;;;1.10;;
10341;SDS011;5216;54.602;18.356;2023-04-03T12:42:42;2.80;;;1.00;;
10341;SDS011;5216;54.602;18.356;2023-04-03T12:45:19;3.70;;;3.03;;
10341;SDS011;5216;54.602;18.356;2023-04-03T12:50:43;3.87;;;1.53;;
10341;SDS011;5216;54.602;18.356;2023-04-03T12:53:12;3.97;;;1.70;;
10341;SDS011;5216;54.602;18.356;2023-04-03T12:55:39;5.77;;;2.57;;
10341;SDS011;5216;54.602;18.356;2023-04-03T12:58:28;2.93;;;2.10;;
10341;SDS011;5216;54.602;18.356;2023-04-03T13:08:04;3.57;;;1.40;;
10341;SDS011;5216;54.602;18.356;2023-04-03T13:10:31;2.30;;;1.27;;
10341;SDS011;5216;54.602;18.356;2023-04-03T13:13:07;1.97;;;1.20;;
10341;SDS011;5216;54.602;18.356;2023-04-03T13:15:46;1.40;;;0.90;;
10341;SDS011;5216;54.602;18.356;2023-04-03T13:18:28;2.43;;;1.33;;
10341;SDS011;5216;54.602;18.356;2023-04-03T13:20:57;3.73;;;1.43;;
10341;SDS011;5216;54.602;18.356;2023-04-03T13:26:47;2.87;;;1.50;;
10341;SDS011;5216;54.602;18.356;2023-04-03T13:29:20;6.80;;;3.63;;
10341;SDS011;5216;54.602;18.356;2023-04-03T13:32:03;4.83;;;1.80;;
10341;SDS011;5216;54.602;18.356;2023-04-03T13:34:38;4.80;;;1.70;;
10341;SDS011;5216;54.602;18.356;2023-04-03T13:37:05;3.87;;;2.00;;
10341;SDS011;5216;54.602;18.356;2023-04-03T13:39:34;4.30;;;1.70;;
10341;SDS011;5216;54.602;18.356;2023-04-03T13:51:17;3.27;;;1.60;;
10341;SDS011;5216;54.602;18.356;2023-04-03T13:53:45;4.07;;;1.40;;
10341;SDS011;5216;54.602;18.356;2023-04-03T13:56:19;4.13;;;1.53;;
10341;SDS011;5216;54.602;18.356;2023-04-03T14:01:23;1.93;;;1.60;;
10341;SDS011;5216;54.602;18.356;2023-04-03T14:03:57;4.10;;;2.07;;
10341;SDS011;5216;54.602;18.356;2023-04-03T14:06:25;2.67;;;1.50;;
10341;SDS011;5216;54.602;18.356;2023-04-03T14:08:52;1.70;;;1.20;;
10341;SDS011;5216;54.602;18.356;2023-04-03T14:11:20;2.13;;;1.30;;
10341;SDS011;5216;54.602;18.356;2023-04-03T14:13:48;4.47;;;2.30;;
10341;SDS011;5216;54.602;18.356;2023-04-03T14:16:15;3.03;;;1.93;;
10341;SDS011;5216;54.602;18.356;2023-04-03T14:18:46;2.27;;;1.40;;
10341;SDS011;5216;54.602;18.356;2023-04-03T14:21:14;2.40;;;1.60;;
10341;SDS011;5216;54.602;18.356;2023-04-03T14:23:41;3.80;;;2.10;;
10341;SDS011;5216;54.602;18.356;2023-04-03T14:26:19;4.93;;;1.90;;
10341;SDS011;5216;54.602;18.356;2023-04-03T14:28:47;3.67;;;2.00;;
10341;SDS011;5216;54.602;18.356;2023-04-03T14:31:14;4.20;;;3.07;;
10341;SDS011;5216;54.602;18.356;2023-04-03T14:33:41;4.60;;;2.83;;
10341;SDS011;5216;54.602;18.356;2023-04-03T14:36:12;3.20;;;2.20;;
10341;SDS011;5216;54.602;18.356;2023-04-03T14:38:39;3.60;;;2.37;;
10341;SDS011;5216;54.602;18.356;2023-04-03T14:41:07;3.97;;;2.30;;
10341;SDS011;5216;54.602;18.356;2023-04-03T14:43:42;4.07;;;3.07;;
10341;SDS011;5216;54.602;18.356;2023-04-03T14:46:12;5.10;;;3.63;;
10341;SDS011;5216;54.602;18.356;2023-04-03T14:48:39;4.00;;;2.67;;
10341;SDS011;5216;54.602;18.356;2023-04-03T14:51:06;4.50;;;2.90;;
10341;SDS011;5216;54.602;18.356;2023-04-03T14:53:32;3.70;;;2.03;;
10341;SDS011;5216;54.602;18.356;2023-04-03T14:56:04;4.07;;;1.80;;
10341;SDS011;5216;54.602;18.356;2023-04-03T14:58:31;2.93;;;1.90;;
10341;SDS011;5216;54.602;18.356;2023-04-03T15:00:58;3.20;;;2.30;;
10341;SDS011;5216;54.602;18.356;2023-04-03T15:03:25;4.70;;;3.17;;
10341;SDS011;5216;54.602;18.356;2023-04-03T15:05:52;2.83;;;2.00;;
10341;SDS011;5216;54.602;18.356;2023-04-03T15:08:20;6.23;;;3.77;;
10341;SDS011;5216;54.602;18.356;2023-04-03T15:10:47;5.03;;;2.10;;
10341;SDS011;5216;54.602;18.356;2023-04-03T15:13:14;4.77;;;2.57;;
10341;SDS011;5216;54.602;18.356;2023-04-03T15:15:41;2.40;;;1.93;;
10341;SDS011;5216;54.602;18.356;2023-04-03T15:18:10;4.07;;;2.30;;
10341;SDS011;5216;54.602;18.356;2023-04-03T15:20:37;3.93;;;1.83;;
10341;SDS011;5216;54.602;18.356;2023-04-03T15:23:03;2.40;;;1.30;;
10341;SDS011;5216;54.602;18.356;2023-04-03T15:25:31;2.13;;;1.50;;
10341;SDS011;5216;54.602;18.356;2023-04-03T15:27:58;3.23;;;1.90;;
10341;SDS011;5216;54.602;18.356;2023-04-03T15:30:24;3.80;;;2.10;;
10341;SDS011;5216;54.602;18.356;2023-04-03T15:33:04;4.03;;;2.10;;
10341;SDS011;5216;54.602;18.356;2023-04-03T15:35:32;7.40;;;1.70;;
10341;SDS011;5216;54.602;18.356;2023-04-03T15:37:58;3.63;;;1.90;;
10341;SDS011;5216;54.602;18.356;2023-04-03T15:40:25;4.17;;;2.67;;
10341;SDS011;5216;54.602;18.356;2023-04-03T15:42:52;4.13;;;2.67;;
10341;SDS011;5216;54.602;18.356;2023-04-03T15:45:19;2.67;;;1.93;;
10341;SDS011;5216;54.602;18.356;2023-04-03T15:47:47;4.27;;;2.50;;
10341;SDS011;5216;54.602;18.356;2023-04-03T15:50:14;4.53;;;2.43;;
10341;SDS011;5216;54.602;18.356;2023-04-03T15:52:41;5.77;;;2.90;;
10341;SDS011;5216;54.602;18.356;2023-04-03T15:55:08;3.27;;;2.10;;
10341;SDS011;5216;54.602;18.356;2023-04-03T15:57:35;4.07;;;2.13;;
10341;SDS011;5216;54.602;18.356;2023-04-03T16:00:06;3.97;;;1.90;;
10341;SDS011;5216;54.602;18.356;2023-04-03T16:02:33;4.73;;;2.20;;
10341;SDS011;5216;54.602;18.356;2023-04-03T16:05:00;3.40;;;2.30;;
10341;SDS011;5216;54.602;18.356;2023-04-03T16:07:26;4.57;;;2.60;;
10341;SDS011;5216;54.602;18.356;2023-04-03T16:09:53;5.23;;;3.07;;
10341;SDS011;5216;54.602;18.356;2023-04-03T16:12:20;6.50;;;3.77;;
10341;SDS011;5216;54.602;18.356;2023-04-03T16:14:46;5.83;;;2.63;;
10341;SDS011;5216;54.602;18.356;2023-04-03T16:19:58;9.10;;;4.33;;
10341;SDS011;5216;54.602;18.356;2023-04-03T16:22:26;6.70;;;2.80;;
10341;SDS011;5216;54.602;18.356;2023-04-03T16:24:53;3.63;;;2.40;;
10341;SDS011;5216;54.602;18.356;2023-04-03T16:27:20;4.10;;;2.30;;
10341;SDS011;5216;54.602;18.356;2023-04-03T16:29:47;6.97;;;2.90;;
10341;SDS011;5216;54.602;18.356;2023-04-03T16:32:14;5.13;;;2.77;;
10341;SDS011;5216;54.602;18.356;2023-04-03T16:34:41;6.13;;;2.90;;
10341;SDS011;5216;54.602;18.356;2023-04-03T16:37:08;4.30;;;2.77;;
10341;SDS011;5216;54.602;18.356;2023-04-03T16:39:35;4.27;;;2.57;;
10341;SDS011;5216;54.602;18.356;2023-04-03T16:42:01;4.10;;;3.00;;
10341;SDS011;5216;54.602;18.356;2023-04-03T16:44:28;3.93;;;2.20;;
10341;SDS011;5216;54.602;18.356;2023-04-03T16:46:55;7.00;;;3.27;;
10341;SDS011;5216;54.602;18.356;2023-04-03T16:49:25;7.43;;;4.10;;
10341;SDS011;5216;54.602;18.356;2023-04-03T16:51:52;4.00;;;2.50;;
10341;SDS011;5216;54.602;18.356;2023-04-03T16:54:19;6.10;;;2.80;;
10341;SDS011;5216;54.602;18.356;2023-04-03T16:56:46;5.10;;;3.10;;
10341;SDS011;5216;54.602;18.356;2023-04-03T16:59:13;7.90;;;2.83;;
10341;SDS011;5216;54.602;18.356;2023-04-03T17:01:39;5.33;;;3.20;;
10341;SDS011;5216;54.602;18.356;2023-04-03T17:04:06;3.90;;;2.90;;
10341;SDS011;5216;54.602;18.356;2023-04-03T17:06:33;3.73;;;2.60;;
10341;SDS011;5216;54.602;18.356;2023-04-03T17:08:59;3.13;;;2.33;;
10341;SDS011;5216;54.602;18.356;2023-04-03T17:11:27;4.17;;;2.20;;
10341;SDS011;5216;54.602;18.356;2023-04-03T17:13:53;4.80;;;2.70;;
10341;SDS011;5216;54.602;18.356;2023-04-03T17:16:21;4.47;;;2.83;;
10341;SDS011;5216;54.602;18.356;2023-04-03T17:18:48;6.07;;;3.40;;
10341;SDS011;5216;54.602;18.356;2023-04-03T17:21:15;4.63;;;2.50;;
10341;SDS011;5216;54.602;18.356;2023-04-03T17:23:44;4.87;;;2.87;;
10341;SDS011;5216;54.602;18.356;2023-04-03T17:26:12;3.83;;;2.30;;
10341;SDS011;5216;54.602;18.356;2023-04-03T17:28:47;4.63;;;2.83;;
10341;SDS011;5216;54.602;18.356;2023-04-03T17:31:13;4.10;;;2.70;;
10341;SDS011;5216;54.602;18.356;2023-04-03T17:33:59;3.90;;;2.50;;
10341;SDS011;5216;54.602;18.356;2023-04-03T17:36:29;5.73;;;2.83;;
10341;SDS011;5216;54.602;18.356;2023-04-03T17:38:56;4.83;;;3.30;;
10341;SDS011;5216;54.602;18.356;2023-04-03T17:41:22;7.60;;;3.87;;
10341;SDS011;5216;54.602;18.356;2023-04-03T17:43:52;4.37;;;2.80;;
10341;SDS011;5216;54.602;18.356;2023-04-03T17:46:39;3.73;;;2.70;;
10341;SDS011;5216;54.602;18.356;2023-04-03T17:49:24;4.80;;;3.50;;
10341;SDS011;5216;54.602;18.356;2023-04-03T17:51:51;6.53;;;4.00;;
10341;SDS011;5216;54.602;18.356;2023-04-03T17:54:21;6.57;;;3.50;;
10341;SDS011;5216;54.602;18.356;2023-04-03T17:56:50;6.57;;;3.20;;
10341;SDS011;5216;54.602;18.356;2023-04-03T17:59:17;4.70;;;3.20;;